createdAt,value
2023-11-15T00:02:44.907Z,7.77
2023-11-15T00:06:48.882Z,7.30
2023-11-15T00:10:52.341Z,7.40
2023-11-15T00:14:57.136Z,7.17
2023-11-15T00:19:00.468Z,6.97
2023-11-15T00:23:03.985Z,6.70
2023-11-15T00:27:09.728Z,7.57
2023-11-15T00:31:15.173Z,6.90
2023-11-15T00:35:18.910Z,7.20
2023-11-15T00:39:23.230Z,7.40
2023-11-15T00:43:26.570Z,8.60
2023-11-15T00:47:32.991Z,8.17
2023-11-15T00:51:36.813Z,9.60
2023-11-15T00:55:40.181Z,9.00
2023-11-15T00:59:48.274Z,8.37
2023-11-15T01:03:58.192Z,8.00
2023-11-15T01:08:01.602Z,8.23
2023-11-15T01:12:05.882Z,7.80
2023-11-15T01:16:10.996Z,9.90
2023-11-15T01:20:16.143Z,9.33
2023-11-15T01:24:19.559Z,8.03
2023-11-15T01:28:23.680Z,8.20
2023-11-15T01:32:27.091Z,8.77
2023-11-15T01:36:31.835Z,8.27
2023-11-15T01:40:39.328Z,7.80
2023-11-15T01:44:42.749Z,7.90
2023-11-15T01:48:46.392Z,7.77
2023-11-15T01:52:51.350Z,7.20
2023-11-15T01:56:55.311Z,8.50
2023-11-15T02:00:58.893Z,6.67
2023-11-15T02:05:02.615Z,7.00
2023-11-15T02:09:08.501Z,6.90
2023-11-15T02:13:23.857Z,5.90
2023-11-15T02:17:27.384Z,5.57
2023-11-15T02:21:30.816Z,5.10
2023-11-15T02:25:36.836Z,6.40
2023-11-15T02:29:40.634Z,6.27
2023-11-15T02:33:46.035Z,6.70
2023-11-15T02:37:49.374Z,6.57
2023-11-15T02:41:54.180Z,6.80
2023-11-15T02:45:57.500Z,6.13
2023-11-15T02:50:00.855Z,6.77
2023-11-15T02:54:05.293Z,6.70
2023-11-15T02:58:10.140Z,6.43
2023-11-15T03:02:15.735Z,7.40
2023-11-15T03:06:19.575Z,8.57
2023-11-15T03:10:23.357Z,7.63
2023-11-15T03:14:28.743Z,7.60
2023-11-15T03:18:32.288Z,7.27
2023-11-15T03:22:35.656Z,6.80
2023-11-15T03:26:39.440Z,6.63
2023-11-15T03:30:44.154Z,6.87
2023-11-15T03:34:47.609Z,6.70
2023-11-15T03:38:50.963Z,6.70
2023-11-15T03:42:54.438Z,6.27
2023-11-15T03:46:59.467Z,7.47
2023-11-15T03:51:02.988Z,7.60
2023-11-15T03:55:07.137Z,7.20
2023-11-15T03:59:11.266Z,7.07
2023-11-15T04:03:16.749Z,5.37
2023-11-15T04:07:22.799Z,6.40
2023-11-15T04:11:26.988Z,7.77
2023-11-15T04:15:30.421Z,8.83
2023-11-15T04:19:35.147Z,6.20
2023-11-15T04:23:39.235Z,7.23
2023-11-15T04:27:42.951Z,7.30
2023-11-15T04:31:46.213Z,6.60
2023-11-15T04:35:51.020Z,6.40
2023-11-15T04:39:54.414Z,6.40
2023-11-15T04:43:57.744Z,6.37
2023-11-15T04:48:01.190Z,6.00
2023-11-15T04:52:06.395Z,6.67
2023-11-15T04:56:10.894Z,4.70
2023-11-15T05:00:15.631Z,5.80
2023-11-15T05:04:19.383Z,5.40
2023-11-15T05:08:25.030Z,5.93
2023-11-15T05:12:30.688Z,5.20
2023-11-15T05:16:34.748Z,4.23
2023-11-15T05:20:38.673Z,4.73
2023-11-15T05:24:44.008Z,4.50
2023-11-15T05:28:47.359Z,5.53
2023-11-15T05:32:50.896Z,4.80
2023-11-15T05:36:54.683Z,5.67
2023-11-15T05:40:59.634Z,5.20
2023-11-15T05:45:03.040Z,6.40
2023-11-15T05:49:09.298Z,6.10
2023-11-15T05:53:13.239Z,17.40
2023-11-15T05:57:18.313Z,13.03
2023-11-15T06:01:22.797Z,9.53
2023-11-15T06:05:26.587Z,11.80
2023-11-15T06:09:31.567Z,5.50
2023-11-15T06:13:39.990Z,5.50
2023-11-15T06:17:45.006Z,4.43
2023-11-15T06:21:49.062Z,3.13
2023-11-15T06:25:52.657Z,1.97
2023-11-15T06:29:58.322Z,1.93
2023-11-15T06:34:02.089Z,1.50
2023-11-15T06:38:07.617Z,1.83
2023-11-15T06:42:14.003Z,2.40
2023-11-15T06:46:22.079Z,1.73
2023-11-15T06:50:27.315Z,1.60
2023-11-15T06:54:30.758Z,1.70
2023-11-15T06:58:34.145Z,1.63
2023-11-15T07:02:39.935Z,2.00
2023-11-15T07:06:47.104Z,4.20
2023-11-15T07:10:50.398Z,3.70
2023-11-15T07:14:54.337Z,2.10
2023-11-15T07:18:59.132Z,2.80
2023-11-15T07:23:03.308Z,2.57
2023-11-15T07:27:07.251Z,2.10
2023-11-15T07:31:13.895Z,3.30
2023-11-15T07:35:20.865Z,2.13
2023-11-15T07:39:25.956Z,6.17
2023-11-15T07:43:29.356Z,2.23
2023-11-15T07:47:35.876Z,1.90
2023-11-15T07:51:41.091Z,7.83
2023-11-15T07:55:44.410Z,2.13
2023-11-15T07:59:48.721Z,1.67
2023-11-15T08:03:52.254Z,1.50
2023-11-15T08:07:58.273Z,1.23
2023-11-15T08:12:02.604Z,2.50
2023-11-15T08:16:07.645Z,1.60
2023-11-15T08:20:12.941Z,1.33
2023-11-15T08:24:22.547Z,3.27
2023-11-15T08:28:26.224Z,1.33
2023-11-15T08:32:30.447Z,1.63
2023-11-15T08:36:33.863Z,2.03
2023-11-15T08:40:50.572Z,1.57
2023-11-15T08:44:54.927Z,1.90
2023-11-15T08:49:01.942Z,3.17
2023-11-15T08:53:05.523Z,10.90
2023-11-15T08:57:10.332Z,2.57
2023-11-15T09:01:18.424Z,6.13
2023-11-15T09:05:26.302Z,9.07
2023-11-15T09:09:30.385Z,10.37
2023-11-15T09:13:38.060Z,10.03
2023-11-15T09:17:47.675Z,9.70
2023-11-15T09:21:52.574Z,12.27
2023-11-15T09:25:59.117Z,8.70
2023-11-15T09:30:03.879Z,9.37
2023-11-15T09:34:09.495Z,13.80
2023-11-15T09:38:15.148Z,14.23
2023-11-15T09:42:21.072Z,14.43
2023-11-15T09:46:28.506Z,18.60
2023-11-15T09:50:35.021Z,13.40
2023-11-15T09:54:41.330Z,9.20
2023-11-15T09:58:48.671Z,21.13
2023-11-15T10:02:54.976Z,19.87
2023-11-15T10:07:05.569Z,14.70
2023-11-15T10:11:10.510Z,24.97
2023-11-15T10:15:14.424Z,40.43
2023-11-15T10:19:28.110Z,46.10
2023-11-15T10:23:33.645Z,36.20
2023-11-15T10:27:38.790Z,29.53
2023-11-15T10:31:52.979Z,20.27
2023-11-15T10:35:57.797Z,19.80
2023-11-15T10:40:04.093Z,13.83
2023-11-15T10:44:14.916Z,14.73
2023-11-15T10:48:23.775Z,9.40
2023-11-15T10:52:30.741Z,6.17
2023-11-15T10:56:36.289Z,6.80
2023-11-15T11:00:45.491Z,7.20
2023-11-15T11:04:52.065Z,5.00
2023-11-15T11:09:06.043Z,4.27
2023-11-15T11:13:20.171Z,4.90
2023-11-15T11:17:34.791Z,3.80
2023-11-15T11:22:09.445Z,3.43
2023-11-15T11:26:37.295Z,3.30
2023-11-15T11:30:41.829Z,3.03
2023-11-15T11:35:42.126Z,2.37
2023-11-15T11:39:54.955Z,2.37
2023-11-15T11:44:00.629Z,1.53
2023-11-15T11:48:04.792Z,1.90
2023-11-15T11:52:08.691Z,1.30
2023-11-15T11:56:15.144Z,1.23
2023-11-15T12:00:22.798Z,1.20
2023-11-15T12:04:26.469Z,1.53
2023-11-15T12:08:32.414Z,1.60
2023-11-15T12:12:36.362Z,1.60
2023-11-15T12:16:41.117Z,1.40
2023-11-15T12:20:44.948Z,1.20
2023-11-15T12:24:50.164Z,1.30
2023-11-15T12:28:53.726Z,1.00
2023-11-15T12:33:01.776Z,1.30
2023-11-15T12:37:08.781Z,1.00
2023-11-15T12:41:12.723Z,1.00
2023-11-15T12:45:30.027Z,1.00
2023-11-15T12:49:36.719Z,1.10
2023-11-15T12:53:42.710Z,1.30
2023-11-15T12:57:53.651Z,0.93
2023-11-15T13:01:57.064Z,1.10
2023-11-15T13:06:13.024Z,0.90
2023-11-15T13:10:18.608Z,0.90
2023-11-15T13:14:23.586Z,1.00
2023-11-15T13:18:27.614Z,0.90
2023-11-15T13:22:32.891Z,0.87
2023-11-15T13:26:36.780Z,0.80
2023-11-15T13:30:40.495Z,0.90
2023-11-15T13:34:46.050Z,0.80
2023-11-15T13:38:51.158Z,0.80
2023-11-15T13:42:54.717Z,0.90
2023-11-15T13:46:58.223Z,1.00
2023-11-15T13:51:01.732Z,0.83
2023-11-15T13:55:08.824Z,1.10
2023-11-15T13:59:12.911Z,0.97
2023-11-15T14:03:16.454Z,0.90
2023-11-15T14:07:20.951Z,0.80
2023-11-15T14:11:28.962Z,0.90
2023-11-15T14:15:32.417Z,20.53
2023-11-15T14:19:35.925Z,2.20
2023-11-15T14:23:40.204Z,1.20
2023-11-15T14:27:45.162Z,1.17
2023-11-15T14:31:48.658Z,0.90
2023-11-15T14:35:52.100Z,0.97
2023-11-15T14:39:55.483Z,0.90
2023-11-15T14:44:00.661Z,1.23
2023-11-15T14:48:05.510Z,1.10
2023-11-15T14:52:12.246Z,0.90
2023-11-15T14:56:16.099Z,1.07
2023-11-15T15:00:22.097Z,1.03
2023-11-15T15:04:25.732Z,1.37
2023-11-15T15:08:29.195Z,1.33
2023-11-15T15:12:32.565Z,1.33
2023-11-15T15:16:39.463Z,1.00
2023-11-15T15:20:42.852Z,1.20
2023-11-15T15:24:46.426Z,1.10
2023-11-15T15:28:49.805Z,1.03
2023-11-15T15:32:54.658Z,1.30
2023-11-15T15:36:58.089Z,1.20
2023-11-15T15:41:01.988Z,1.00
2023-11-15T15:45:09.063Z,1.60
2023-11-15T15:49:15.150Z,1.50
2023-11-15T15:53:18.687Z,1.43
2023-11-15T15:57:24.311Z,1.60
2023-11-15T16:01:30.647Z,1.47
2023-11-15T16:05:35.368Z,1.70
2023-11-15T16:09:42.697Z,1.90
2023-11-15T16:13:46.267Z,2.70
2023-11-15T16:17:50.430Z,2.90
2023-11-15T16:21:55.602Z,3.47
2023-11-15T16:26:00.879Z,4.57
2023-11-15T16:30:05.344Z,4.83
2023-11-15T16:34:08.739Z,5.20
2023-11-15T16:38:14.185Z,6.07
2023-11-15T16:42:21.617Z,5.30
2023-11-15T16:46:25.251Z,5.00
2023-11-15T16:50:29.647Z,6.07
2023-11-15T16:54:36.347Z,5.60
2023-11-15T16:58:39.836Z,6.60
2023-11-15T17:02:45.482Z,9.43
2023-11-15T17:06:48.932Z,14.30
2023-11-15T17:10:53.756Z,17.17
2023-11-15T17:15:00.620Z,15.17
2023-11-15T17:19:05.194Z,13.90
2023-11-15T17:23:10.579Z,8.13
2023-11-15T17:27:17.420Z,9.13
2023-11-15T17:31:26.347Z,9.17
2023-11-15T17:35:31.704Z,9.33
2023-11-15T17:39:38.048Z,8.40
2023-11-15T17:43:44.222Z,7.70
2023-11-15T17:47:49.204Z,8.27
2023-11-15T17:51:57.721Z,6.97
2023-11-15T17:56:02.744Z,6.37
2023-11-15T18:00:14.876Z,7.17
2023-11-15T18:04:19.618Z,5.67
2023-11-15T18:08:24.972Z,4.57
2023-11-15T18:12:30.338Z,5.40
2023-11-15T18:16:36.752Z,5.53
2023-11-15T18:20:45.853Z,4.90
2023-11-15T18:24:51.788Z,5.70
2023-11-15T18:28:57.144Z,6.83
2023-11-15T18:33:07.353Z,6.00
2023-11-15T18:37:13.068Z,5.90
2023-11-15T18:41:19.231Z,6.13
2023-11-15T18:45:24.787Z,5.97
2023-11-15T18:49:31.956Z,6.70
2023-11-15T18:53:37.136Z,6.87
2023-11-15T18:57:41.966Z,7.00
2023-11-15T19:01:48.422Z,6.20
2023-11-15T19:05:56.843Z,7.30
2023-11-15T19:10:04.090Z,6.20
2023-11-15T19:14:10.047Z,6.40
2023-11-15T19:18:16.472Z,7.10
2023-11-15T19:22:24.073Z,8.47
2023-11-15T19:26:30.857Z,13.00
2023-11-15T19:30:38.995Z,6.80
2023-11-15T19:34:46.570Z,3.90
2023-11-15T19:38:53.910Z,3.70
2023-11-15T19:43:01.886Z,7.10
2023-11-15T19:47:10.574Z,9.50
2023-11-15T19:51:37.095Z,8.30
2023-11-15T19:55:51.161Z,9.67
2023-11-15T20:00:00.674Z,9.77
2023-11-15T20:04:10.595Z,5.23
2023-11-15T20:08:21.370Z,5.03
2023-11-15T20:12:31.028Z,5.13
2023-11-15T20:16:38.168Z,4.80
2023-11-15T20:20:45.213Z,4.30
2023-11-15T20:24:51.165Z,4.40
2023-11-15T20:28:58.076Z,3.37
2023-11-15T20:33:04.801Z,4.23
2023-11-15T20:37:09.902Z,4.50
2023-11-15T20:41:15.524Z,4.10
2023-11-15T20:45:24.252Z,3.47
2023-11-15T20:49:29.654Z,3.20
2023-11-15T20:53:37.812Z,3.10
2023-11-15T20:57:50.682Z,3.60
2023-11-15T21:01:55.565Z,3.67
2023-11-15T21:06:01.397Z,3.47
2023-11-15T21:10:05.096Z,4.37
2023-11-15T21:14:10.357Z,2.90
2023-11-15T21:18:16.586Z,3.97
2023-11-15T21:22:20.908Z,3.50
2023-11-15T21:26:25.582Z,4.03
2023-11-15T21:30:31.247Z,3.77
2023-11-15T21:34:37.862Z,5.53
2023-11-15T21:38:41.677Z,3.83
2023-11-15T21:42:46.883Z,3.70
2023-11-15T21:46:51.989Z,3.63
2023-11-15T21:50:56.965Z,4.97
2023-11-15T21:55:01.854Z,5.60
2023-11-15T21:59:05.774Z,5.70
2023-11-15T22:03:10.890Z,5.00
2023-11-15T22:07:17.088Z,5.47
2023-11-15T22:11:21.900Z,5.10
2023-11-15T22:15:26.662Z,5.63
2023-11-15T22:19:32.397Z,5.60
2023-11-15T22:23:37.227Z,5.27
2023-11-15T22:27:40.663Z,4.20
2023-11-15T22:31:48.112Z,8.40
2023-11-15T22:35:52.936Z,10.77
2023-11-15T22:39:59.641Z,9.93
2023-11-15T22:44:03.192Z,11.87
2023-11-15T22:48:07.562Z,16.40
2023-11-15T22:52:10.913Z,18.60
2023-11-15T22:56:17.285Z,17.73
2023-11-15T23:00:33.707Z,24.57
2023-11-15T23:04:37.697Z,27.43
2023-11-15T23:08:42.089Z,21.43
2023-11-15T23:12:46.961Z,10.10
2023-11-15T23:16:50.596Z,7.50
2023-11-15T23:20:53.894Z,2.50
2023-11-15T23:24:59.224Z,2.13
2023-11-15T23:29:04.488Z,5.40
2023-11-15T23:33:08.453Z,6.13
2023-11-15T23:37:11.884Z,4.10
2023-11-15T23:41:15.257Z,3.40
2023-11-15T23:45:20.036Z,1.83
2023-11-15T23:49:23.468Z,2.10
2023-11-15T23:53:30.205Z,1.80
2023-11-15T23:57:34.191Z,1.67
